Time;durP1;ratioP1;P1;durP2;ratioP2;P2;SDS_P1;SDS_P2;PMS_P1;PMS_P2;Temp;Humidity;BMP_temperature;BMP_pressure;BME280_temperature;BME280_humidity;BME280_pressure;Samples;Min_cycle;Max_cycle;Signal;HPM_P1;HPM_P2
2023/02/02 00:00:02;;;;;;;;;;;6.60;99.90;7.10;100970.00;;;;338975;28;83544;-89
2023/02/02 00:00:15;;;;;;;;;;;6.60;99.90;7.10;100976.00;;;;338559;28;89525;-89
2023/02/02 00:00:26;;;;;;;;;;;6.60;99.90;7.10;100979.00;;;;340360;28;83584;-89
2023/02/02 00:00:38;;;;;;;;;;;6.60;99.90;7.10;100970.00;;;;337395;28;90013;-89
2023/02/02 00:00:50;;;;;;;;;;;6.60;99.90;7.10;100976.00;;;;339013;28;83614;-90
2023/02/02 00:01:07;;;;;;;;;;;6.60;99.90;7.10;100971.00;;;;338693;28;90709;-88
2023/02/02 00:01:19;;;;;;;;;;;6.60;99.90;7.10;100976.00;;;;336578;28;83961;-89
2023/02/02 00:01:32;;;;;;;;;;;6.60;99.90;7.20;100970.00;;;;338821;28;89600;-88
2023/02/02 00:01:45;;;;;;;;;;;6.60;99.90;7.20;100974.00;;;;338042;28;83348;-89
2023/02/02 00:02:08;;;;;;;;;;;6.60;99.90;7.20;100971.00;;;;336754;28;89345;-89
2023/02/02 00:02:21;;;;;;;;;;;6.60;99.90;7.10;100972.00;;;;337684;28;82217;-89
2023/02/02 00:02:35;;;;;;;;;;;6.60;99.90;7.10;100979.00;;;;339363;28;88424;-89
2023/02/02 00:02:47;;;;;;;;;;;6.60;99.90;7.10;100972.00;;;;338762;28;83416;-89
2023/02/02 00:02:59;;;;;;;;;;;6.60;99.90;7.10;100967.00;;;;336497;28;88699;-89
2023/02/02 00:03:11;;;;;;;;;;;6.60;99.90;7.10;100971.00;;;;338449;28;83498;-89
2023/02/02 00:03:24;;;;;;;;;;;6.60;99.90;7.10;100977.00;;;;339475;28;88562;-89
2023/02/02 00:03:40;;;;;;;;;;;6.60;99.90;7.20;100970.00;;;;341357;28;83532;-90
2023/02/02 00:03:52;;;;;;;;;;;6.60;99.90;7.20;100975.00;;;;339268;28;88833;-89
2023/02/02 00:04:05;;;;;;;;;;;6.60;99.90;7.20;100975.00;;;;339800;28;83772;-89
2023/02/02 00:04:37;;;;;;;;;;;6.60;99.90;7.20;100966.00;;;;339772;28;86617;-89
2023/02/02 00:04:50;;;;;;;;;;;6.60;99.90;7.20;100984.00;;;;336985;28;83371;-88
2023/02/02 00:05:04;;;;;;;;;;;6.70;99.90;7.20;100976.00;;;;337681;28;87187;-89
2023/02/02 00:05:16;;;;;;;;;;;6.60;99.90;7.30;100980.00;;;;337549;28;82554;-89
2023/02/02 00:05:28;;;;;;;;;;;6.70;99.90;7.30;100976.00;;;;333021;29;88073;-89
2023/02/02 00:05:49;;;;;;;;;;;6.70;99.90;7.20;100976.00;;;;336020;29;82603;-89
2023/02/02 00:06:02;;;;;;;;;;;6.70;99.90;7.20;100980.00;;;;338284;28;88203;-89
2023/02/02 00:06:21;;;;;;;;;;;6.70;99.90;7.20;100982.00;;;;338724;28;82490;-90
2023/02/02 00:06:33;;;;;;;;;;;6.70;99.90;7.30;100979.00;;;;339384;28;87919;-90
2023/02/02 00:06:47;;;;;;;;;;;6.70;99.90;7.30;100976.00;;;;341278;28;82578;-90
2023/02/02 00:07:01;;;;;;;;;;;6.70;99.90;7.30;100982.00;;;;341046;28;89278;-89
2023/02/02 00:07:15;;;;;;;;;;;6.70;99.90;7.20;100980.00;;;;335695;29;82450;-89
2023/02/02 00:07:27;;;;;;;;;;;6.70;99.90;7.30;100983.00;;;;336510;28;90715;-89
2023/02/02 00:07:44;;;;;;;;;;;6.70;99.90;7.30;100984.00;;;;337023;28;82612;-88
2023/02/02 00:07:57;;;;;;;;;;;6.70;99.90;7.30;100981.00;;;;337117;28;89960;-89
2023/02/02 00:08:08;;;;;;;;;;;6.70;99.90;7.30;100978.00;;;;337680;28;82627;-89
2023/02/02 00:08:20;;;;;;;;;;;6.80;99.90;7.30;100974.00;;;;339728;28;90028;-89
2023/02/02 00:08:34;;;;;;;;;;;6.80;99.90;7.30;100975.00;;;;339891;28;82578;-90
2023/02/02 00:08:48;;;;;;;;;;;6.80;99.90;7.30;100985.00;;;;339812;28;89695;-89
2023/02/02 00:09:01;;;;;;;;;;;6.80;99.90;7.20;100980.00;;;;341308;28;82609;-89
2023/02/02 00:09:14;;;;;;;;;;;6.80;99.90;7.10;100983.00;;;;340981;28;91850;-89
2023/02/02 00:09:28;;;;;;;;;;;6.70;99.90;7.10;100980.00;;;;341142;28;83570;-89
2023/02/02 00:09:40;;;;;;;;;;;6.70;99.90;7.20;100982.00;;;;341093;28;86474;-89
2023/02/02 00:09:52;;;;;;;;;;;6.70;99.90;7.20;100973.00;;;;337500;28;82403;-90
2023/02/02 00:10:06;;;;;;;;;;;6.70;99.90;7.20;100980.00;;;;335865;29;89382;-89
2023/02/02 00:10:34;;;;;;;;;;;6.70;99.90;7.10;100971.00;;;;337328;28;82447;-88
2023/02/02 00:10:49;;;;;;;;;;;6.70;99.90;7.20;100979.00;;;;339793;28;90062;-90
2023/02/02 00:11:05;;;;;;;;;;;6.70;99.90;7.20;100987.00;;;;341355;28;82661;-89
2023/02/02 00:11:17;;;;;;;;;;;6.70;99.90;7.20;100978.00;;;;338362;28;88829;-89
2023/02/02 00:11:29;;;;;;;;;;;6.70;99.90;7.20;100979.00;;;;338871;28;82449;-89
2023/02/02 00:11:41;;;;;;;;;;;6.70;99.90;7.20;100986.00;;;;341144;28;88406;-89
2023/02/02 00:11:53;;;;;;;;;;;6.70;99.90;7.20;100982.00;;;;337542;28;82492;-89
2023/02/02 00:12:05;;;;;;;;;;;6.70;99.90;7.20;100981.00;;;;339530;28;88115;-89
2023/02/02 00:12:17;;;;;;;;;;;6.70;99.90;7.20;100976.00;;;;339580;28;82584;-89
2023/02/02 00:12:32;;;;;;;;;;;6.70;99.90;7.30;100979.00;;;;338269;28;90262;-88
2023/02/02 00:12:44;;;;;;;;;;;6.70;99.90;7.30;100981.00;;;;341076;28;82424;-89
2023/02/02 00:12:56;;;;;;;;;;;6.70;99.90;7.30;100970.00;;;;339750;28;89677;-89
2023/02/02 00:13:08;;;;;;;;;;;6.70;99.90;7.30;100984.00;;;;337465;28;82481;-89
2023/02/02 00:13:20;;;;;;;;;;;6.70;99.90;7.30;100979.00;;;;338437;28;88826;-89
2023/02/02 00:13:32;;;;;;;;;;;6.70;99.90;7.30;100983.00;;;;342637;28;82409;-89
2023/02/02 00:13:44;;;;;;;;;;;6.70;99.90;7.30;100982.00;;;;343717;28;88950;-90
2023/02/02 00:13:56;;;;;;;;;;;6.70;99.90;7.30;100983.00;;;;341712;28;82515;-90
2023/02/02 00:14:08;;;;;;;;;;;6.70;99.90;7.30;100973.00;;;;340823;28;89101;-90
2023/02/02 00:14:21;;;;;;;;;;;6.70;99.90;7.30;100979.00;;;;341377;28;82491;-90
2023/02/02 00:14:40;;;;;;;;;;;6.80;99.90;7.20;100976.00;;;;340413;28;90630;-90
2023/02/02 00:14:54;;;;;;;;;;;6.80;99.90;7.30;100978.00;;;;341156;28;82548;-90
2023/02/02 00:15:09;;;;;;;;;;;6.70;99.90;7.20;100969.00;;;;337745;28;89490;-89
2023/02/02 00:15:21;;;;;;;;;;;6.70;99.90;7.10;100977.00;;;;339011;28;82589;-87
2023/02/02 00:15:36;;;;;;;;;;;6.80;99.90;7.20;100978.00;;;;341012;28;89326;-87
2023/02/02 00:15:53;;;;;;;;;;;6.70;99.90;7.20;100985.00;;;;340182;28;82535;-87
2023/02/02 00:16:29;;;;;;;;;;;6.70;99.90;7.30;100975.00;;;;340954;28;90111;-87
2023/02/02 00:16:43;;;;;;;;;;;6.70;99.90;7.20;100979.00;;;;341174;28;82575;-88
2023/02/02 00:16:57;;;;;;;;;;;6.80;99.90;7.20;100981.00;;;;340608;28;89997;-89
2023/02/02 00:17:09;;;;;;;;;;;6.70;99.90;7.20;100974.00;;;;340108;28;82637;-88
2023/02/02 00:17:21;;;;;;;;;;;6.70;99.90;7.20;100970.00;;;;338246;28;89070;-88
2023/02/02 00:17:33;;;;;;;;;;;6.70;99.90;7.20;100979.00;;;;337538;28;82449;-88
2023/02/02 00:17:44;;;;;;;;;;;6.80;99.90;7.20;100976.00;;;;340806;28;92752;-89
2023/02/02 00:17:57;;;;;;;;;;;6.70;99.90;7.20;100967.00;;;;340299;28;82428;-88
2023/02/02 00:18:10;;;;;;;;;;;6.80;99.90;7.20;100978.00;;;;340195;28;87997;-88
2023/02/02 00:18:25;;;;;;;;;;;6.70;99.90;7.10;100975.00;;;;340132;28;82459;-88
2023/02/02 00:18:37;;;;;;;;;;;6.70;99.90;7.10;100976.00;;;;340765;28;87833;-88
2023/02/02 00:18:49;;;;;;;;;;;6.70;99.90;7.10;100980.00;;;;342140;28;82493;-88
2023/02/02 00:19:12;;;;;;;;;;;6.70;99.90;7.20;100973.00;;;;339204;28;88120;-88
2023/02/02 00:19:26;;;;;;;;;;;6.70;99.90;7.30;100980.00;;;;336699;28;82488;-88
2023/02/02 00:19:37;;;;;;;;;;;6.70;99.90;7.30;100977.00;;;;336587;28;88113;-88
2023/02/02 00:19:49;;;;;;;;;;;6.70;99.90;7.20;100975.00;;;;340878;28;83454;-89
2023/02/02 00:20:01;;;;;;;;;;;6.70;99.90;7.20;100982.00;;;;337733;28;89877;-88
2023/02/02 00:20:13;;;;;;;;;;;6.70;99.90;7.20;100973.00;;;;338200;28;83467;-89
2023/02/02 00:20:25;;;;;;;;;;;6.70;99.90;7.20;100972.00;;;;338970;28;90384;-88
2023/02/02 00:20:36;;;;;;;;;;;6.70;99.90;7.30;100980.00;;;;340607;28;83382;-88
2023/02/02 00:20:49;;;;;;;;;;;6.70;99.90;7.20;100974.00;;;;340260;28;87678;-89
2023/02/02 00:21:00;;;;;;;;;;;6.70;99.90;7.30;100975.00;;;;336603;28;82597;-88
2023/02/02 00:21:12;;;;;;;;;;;6.70;99.90;7.20;100976.00;;;;337616;28;91582;-88
2023/02/02 00:21:24;;;;;;;;;;;6.70;99.90;7.20;100976.00;;;;339382;28;82483;-88
2023/02/02 00:21:37;;;;;;;;;;;6.70;99.90;7.20;100971.00;;;;338919;28;90189;-88
2023/02/02 00:21:48;;;;;;;;;;;6.80;99.90;7.10;100976.00;;;;339501;28;82327;-88
2023/02/02 00:22:00;;;;;;;;;;;6.70;99.90;7.10;100969.00;;;;339974;28;91393;-88
2023/02/02 00:22:12;;;;;;;;;;;6.70;99.90;7.20;100976.00;;;;341921;28;84075;-88
2023/02/02 00:22:25;;;;;;;;;;;6.70;99.90;7.30;100971.00;;;;340655;28;89130;-88
2023/02/02 00:22:36;;;;;;;;;;;6.70;99.90;7.20;100978.00;;;;342179;28;82257;-88
2023/02/02 00:22:48;;;;;;;;;;;6.70;99.90;7.20;100977.00;;;;340234;28;88961;-88
2023/02/02 00:23:00;;;;;;;;;;;6.70;99.90;7.20;100974.00;;;;339166;28;82519;-85
2023/02/02 00:23:16;;;;;;;;;;;6.70;99.90;7.20;100980.00;;;;337821;28;88773;-89
2023/02/02 00:23:29;;;;;;;;;;;6.70;99.90;7.20;100973.00;;;;335376;29;82590;-89
2023/02/02 00:23:41;;;;;;;;;;;6.70;99.90;7.20;100968.00;;;;338952;28;89604;-90
2023/02/02 00:23:53;;;;;;;;;;;6.70;99.90;7.20;100972.00;;;;340572;28;82440;-89
2023/02/02 00:24:06;;;;;;;;;;;6.70;99.90;7.30;100971.00;;;;340207;28;90480;-90
2023/02/02 00:24:18;;;;;;;;;;;6.70;99.90;7.30;100970.00;;;;340668;28;83493;-90
2023/02/02 00:24:30;;;;;;;;;;;6.70;99.90;7.30;100975.00;;;;341629;28;88199;-90
2023/02/02 00:24:41;;;;;;;;;;;6.70;99.90;7.30;100970.00;;;;339118;28;82606;-89
2023/02/02 00:24:54;;;;;;;;;;;6.70;99.90;7.30;100973.00;;;;336033;28;90033;-89
2023/02/02 00:25:06;;;;;;;;;;;6.70;99.90;7.20;100966.00;;;;334204;29;82501;-89
2023/02/02 00:25:18;;;;;;;;;;;6.70;99.90;7.30;100966.00;;;;340198;28;89151;-89
2023/02/02 00:25:30;;;;;;;;;;;6.70;99.90;7.30;100970.00;;;;341977;28;82565;-90
2023/02/02 00:25:42;;;;;;;;;;;6.70;99.90;7.30;100971.00;;;;340262;28;90389;-89
2023/02/02 00:25:54;;;;;;;;;;;6.80;99.90;7.40;100972.00;;;;339144;28;83366;-89
2023/02/02 00:26:05;;;;;;;;;;;6.80;99.90;7.30;100974.00;;;;339871;28;88756;-89
2023/02/02 00:26:17;;;;;;;;;;;6.80;99.90;7.30;100969.00;;;;339230;28;83353;-89
2023/02/02 00:26:30;;;;;;;;;;;6.80;99.90;7.30;100967.00;;;;336224;28;90430;-89
2023/02/02 00:26:42;;;;;;;;;;;6.80;99.90;7.30;100966.00;;;;338015;28;83339;-89
2023/02/02 00:26:55;;;;;;;;;;;6.80;99.90;7.30;100967.00;;;;340158;28;90361;-89
2023/02/02 00:27:07;;;;;;;;;;;6.80;99.90;7.20;100971.00;;;;339072;28;83496;-89
2023/02/02 00:27:19;;;;;;;;;;;6.80;99.90;7.20;100962.00;;;;337529;28;87713;-89
2023/02/02 00:27:31;;;;;;;;;;;6.80;99.90;7.20;100971.00;;;;339357;28;83443;-89
2023/02/02 00:27:43;;;;;;;;;;;6.80;99.90;7.30;100975.00;;;;338906;28;91460;-89
2023/02/02 00:27:55;;;;;;;;;;;6.80;99.90;7.30;100974.00;;;;340834;28;83272;-89
2023/02/02 00:28:06;;;;;;;;;;;6.80;99.90;7.30;100968.00;;;;338797;28;91533;-89
2023/02/02 00:28:18;;;;;;;;;;;6.70;99.90;7.30;100977.00;;;;335603;29;83365;-90
2023/02/02 00:28:30;;;;;;;;;;;6.70;99.90;7.20;100976.00;;;;337199;28;88198;-90
2023/02/02 00:28:42;;;;;;;;;;;6.80;99.90;7.30;100981.00;;;;336791;28;83268;-90
2023/02/02 00:28:54;;;;;;;;;;;6.80;99.90;7.30;100969.00;;;;336086;28;90719;-89
2023/02/02 00:29:06;;;;;;;;;;;6.80;99.90;7.40;100974.00;;;;337015;28;83385;-89
2023/02/02 00:29:20;;;;;;;;;;;6.80;99.90;7.40;100964.00;;;;339149;28;88986;-89
2023/02/02 00:29:38;;;;;;;;;;;6.80;99.90;7.30;100969.00;;;;337117;28;82553;-89
2023/02/02 00:29:57;;;;;;;;;;;6.80;99.90;7.30;100964.00;;;;336668;28;87572;-89
2023/02/02 00:30:33;;;;;;;;;;;6.80;99.90;7.20;100968.00;;;;338157;28;82571;-88
2023/02/02 00:31:00;;;;;;;;;;;6.80;99.90;7.30;100958.00;;;;337626;28;87696;-90
2023/02/02 00:31:33;;;;;;;;;;;6.80;99.90;7.30;100962.00;;;;339850;28;82347;-88
2023/02/02 00:31:45;;;;;;;;;;;6.80;99.90;7.30;100963.00;;;;337913;28;88569;-87
2023/02/02 00:31:57;;;;;;;;;;;6.70;99.90;7.20;100966.00;;;;339910;28;82428;-87
2023/02/02 00:32:09;;;;;;;;;;;6.80;99.90;7.20;100961.00;;;;339437;28;89151;-88
2023/02/02 00:32:20;;;;;;;;;;;6.80;99.90;7.20;100964.00;;;;341029;28;83259;-88
2023/02/02 00:32:33;;;;;;;;;;;6.80;99.90;7.30;100963.00;;;;340767;28;88838;-88
2023/02/02 00:32:47;;;;;;;;;;;6.80;99.90;7.40;100962.00;;;;338556;28;82283;-88
2023/02/02 00:32:59;;;;;;;;;;;6.80;99.90;7.30;100954.00;;;;339349;28;89510;-88
2023/02/02 00:33:14;;;;;;;;;;;6.80;99.90;7.40;100958.00;;;;341175;28;83485;-88
2023/02/02 00:33:25;;;;;;;;;;;6.80;99.90;7.40;100956.00;;;;340929;28;90096;-88
2023/02/02 00:33:44;;;;;;;;;;;6.80;99.90;7.40;100957.00;;;;339974;28;83282;-89
2023/02/02 00:33:56;;;;;;;;;;;6.80;99.90;7.30;100965.00;;;;336822;28;88162;-88
2023/02/02 00:34:10;;;;;;;;;;;6.80;99.90;7.30;100961.00;;;;335679;28;82468;-88
2023/02/02 00:34:22;;;;;;;;;;;6.80;99.90;7.30;100958.00;;;;339074;28;88232;-88
2023/02/02 00:34:38;;;;;;;;;;;6.80;99.90;7.30;100966.00;;;;340737;28;82443;-87
2023/02/02 00:34:52;;;;;;;;;;;6.80;99.90;7.40;100964.00;;;;339165;28;87882;-89
2023/02/02 00:35:04;;;;;;;;;;;6.80;99.90;7.40;100959.00;;;;338018;28;83399;-89
2023/02/02 00:35:15;;;;;;;;;;;6.80;99.90;7.30;100973.00;;;;340326;28;89038;-88
2023/02/02 00:35:27;;;;;;;;;;;6.80;99.90;7.20;100964.00;;;;341870;28;83506;-88
2023/02/02 00:35:40;;;;;;;;;;;6.80;99.90;7.20;100952.00;;;;340364;28;90214;-88
2023/02/02 00:35:52;;;;;;;;;;;6.80;99.90;7.20;100962.00;;;;339554;28;83347;-88
2023/02/02 00:36:20;;;;;;;;;;;6.80;99.90;7.40;100964.00;;;;339112;28;91390;-88
2023/02/02 00:36:32;;;;;;;;;;;6.80;99.90;7.40;100961.00;;;;342297;28;82618;-89
2023/02/02 00:36:44;;;;;;;;;;;6.80;99.90;7.40;100964.00;;;;342116;28;89587;-89
2023/02/02 00:38:12;;;;;;;;;;;6.80;99.90;7.20;100967.00;;;;338651;28;86487;-90
2023/02/02 00:38:24;;;;;;;;;;;6.80;99.90;7.20;100962.00;;;;336778;28;83457;-90
2023/02/02 00:38:36;;;;;;;;;;;6.80;99.90;7.20;100964.00;;;;337576;28;89492;-90
2023/02/02 00:38:49;;;;;;;;;;;6.80;99.90;7.30;100959.00;;;;339574;28;82335;-90
2023/02/02 00:39:00;;;;;;;;;;;6.80;99.90;7.30;100962.00;;;;339040;28;90959;-90
2023/02/02 00:39:24;;;;;;;;;;;6.80;99.90;7.30;100964.00;;;;337777;28;83390;-90
2023/02/02 00:39:37;;;;;;;;;;;6.80;99.90;7.40;100961.00;;;;338189;28;88230;-90
2023/02/02 00:39:48;;;;;;;;;;;6.80;99.90;7.40;100963.00;;;;335683;29;82472;-90
2023/02/02 00:40:01;;;;;;;;;;;6.80;99.90;7.40;100958.00;;;;339184;28;88117;-90
2023/02/02 00:40:13;;;;;;;;;;;6.80;99.90;7.40;100964.00;;;;341868;28;82757;-90
2023/02/02 00:40:25;;;;;;;;;;;6.80;99.90;7.40;100966.00;;;;340351;28;87136;-90
2023/02/02 00:40:37;;;;;;;;;;;6.80;99.90;7.30;100962.00;;;;337945;28;83461;-90
2023/02/02 00:40:48;;;;;;;;;;;6.80;99.90;7.30;100958.00;;;;339085;28;88174;-90
2023/02/02 00:41:22;;;;;;;;;;;6.80;99.90;7.30;100967.00;;;;341641;28;82443;-90
2023/02/02 00:42:16;;;;;;;;;;;6.80;99.90;7.40;100961.00;;;;341914;28;88152;-89
2023/02/02 00:42:37;;;;;;;;;;;6.80;99.90;7.40;100960.00;;;;339614;28;83432;-89
2023/02/02 00:42:49;;;;;;;;;;;6.80;99.90;7.40;100958.00;;;;337603;28;88198;-89
2023/02/02 00:43:01;;;;;;;;;;;6.80;99.90;7.40;100959.00;;;;339381;28;82354;-89
2023/02/02 00:43:13;;;;;;;;;;;6.80;99.90;7.30;100956.00;;;;337677;28;89379;-89
2023/02/02 00:43:24;;;;;;;;;;;6.80;99.90;7.40;100961.00;;;;335372;29;83639;-89
2023/02/02 00:43:36;;;;;;;;;;;6.80;99.90;7.40;100952.00;;;;336665;28;87793;-89
2023/02/02 00:45:14;;;;;;;;;;;6.80;99.90;7.50;100957.00;;;;339391;28;83604;-89
2023/02/02 00:45:21;;;;;;;;;;;6.90;99.90;7.40;100962.00;;;;339243;28;88753;-88
2023/02/02 00:45:33;;;;;;;;;;;6.90;99.90;7.30;100961.00;;;;340945;28;83574;-89
2023/02/02 00:45:44;;;;;;;;;;;6.80;99.90;7.40;100968.00;;;;340664;28;89453;-89
2023/02/02 00:45:56;;;;;;;;;;;6.80;99.90;7.30;100964.00;;;;338363;28;82483;-89
2023/02/02 00:46:11;;;;;;;;;;;6.80;99.90;7.40;100965.00;;;;339375;28;89124;-89
2023/02/02 00:46:23;;;;;;;;;;;6.80;99.90;7.30;100959.00;;;;341054;28;82511;-89
2023/02/02 00:46:38;;;;;;;;;;;6.90;99.90;7.30;100959.00;;;;340365;28;89142;-88
2023/02/02 00:46:49;;;;;;;;;;;6.80;99.90;7.30;100963.00;;;;340883;28;83512;-89
2023/02/02 00:47:01;;;;;;;;;;;6.80;99.90;7.30;100967.00;;;;340705;28;89801;-89
2023/02/02 00:47:15;;;;;;;;;;;6.80;99.90;7.30;100960.00;;;;341541;28;83386;-88
2023/02/02 00:47:27;;;;;;;;;;;6.80;99.90;7.30;100954.00;;;;338408;28;88963;-90
2023/02/02 00:47:39;;;;;;;;;;;6.80;99.90;7.30;100962.00;;;;342235;28;82268;-89
2023/02/02 00:47:51;;;;;;;;;;;6.80;99.90;7.30;100961.00;;;;341101;28;89104;-89
2023/02/02 00:48:03;;;;;;;;;;;6.80;99.90;7.40;100959.00;;;;341345;28;82471;-89
2023/02/02 00:48:14;;;;;;;;;;;6.80;99.90;7.40;100961.00;;;;342742;28;87413;-89
2023/02/02 00:48:26;;;;;;;;;;;6.80;99.90;7.40;100967.00;;;;343051;28;83531;-89
2023/02/02 00:48:38;;;;;;;;;;;6.80;99.90;7.40;100960.00;;;;340643;28;88028;-89
2023/02/02 00:48:50;;;;;;;;;;;6.80;99.90;7.40;100959.00;;;;342632;28;82534;-89
2023/02/02 00:49:02;;;;;;;;;;;6.90;99.90;7.30;100955.00;;;;340998;28;90741;-88
2023/02/02 00:49:14;;;;;;;;;;;6.80;99.90;7.30;100957.00;;;;341494;28;82491;-88
2023/02/02 00:49:26;;;;;;;;;;;6.80;99.90;7.30;100964.00;;;;340983;28;88914;-89
2023/02/02 00:49:37;;;;;;;;;;;6.80;99.90;7.30;100953.00;;;;342818;28;82365;-87
2023/02/02 00:49:49;;;;;;;;;;;6.80;99.90;7.40;100955.00;;;;339488;28;90027;-88
2023/02/02 00:50:01;;;;;;;;;;;6.80;99.90;7.40;100952.00;;;;339740;28;83147;-89
2023/02/02 00:50:18;;;;;;;;;;;6.80;99.90;7.40;100955.00;;;;340817;28;89812;-88
2023/02/02 00:50:30;;;;;;;;;;;6.90;99.90;7.40;100958.00;;;;341013;28;82276;-89
2023/02/02 00:50:41;;;;;;;;;;;6.90;99.90;7.40;100961.00;;;;342238;28;87807;-87
2023/02/02 00:50:53;;;;;;;;;;;6.90;99.90;7.40;100948.00;;;;342853;28;82396;-88
2023/02/02 00:51:05;;;;;;;;;;;6.80;99.90;7.40;100956.00;;;;339522;28;90415;-89
2023/02/02 00:51:17;;;;;;;;;;;6.90;99.90;7.40;100953.00;;;;339952;28;82339;-87
2023/02/02 00:51:29;;;;;;;;;;;6.90;99.90;7.50;100953.00;;;;340934;28;89230;-88
2023/02/02 00:51:40;;;;;;;;;;;6.90;99.90;7.50;100954.00;;;;341315;28;82333;-86
2023/02/02 00:51:53;;;;;;;;;;;6.80;99.90;7.50;100954.00;;;;339688;28;88349;-88
2023/02/02 00:52:04;;;;;;;;;;;6.80;99.90;7.50;100947.00;;;;341229;28;82385;-88
2023/02/02 00:52:16;;;;;;;;;;;6.90;99.90;7.50;100955.00;;;;339698;28;88215;-87
2023/02/02 00:52:28;;;;;;;;;;;6.90;99.90;7.40;100954.00;;;;339974;28;82242;-88
2023/02/02 00:52:39;;;;;;;;;;;6.90;99.90;7.40;100954.00;;;;342356;28;87756;-89
2023/02/02 00:52:51;;;;;;;;;;;6.90;99.90;7.40;100956.00;;;;343978;28;82127;-89
2023/02/02 00:53:03;;;;;;;;;;;6.90;99.90;7.40;100939.00;;;;342542;28;87747;-88
2023/02/02 00:53:15;;;;;;;;;;;6.90;99.90;7.40;100953.00;;;;341559;28;82268;-86
2023/02/02 00:53:27;;;;;;;;;;;6.90;99.90;7.40;100947.00;;;;344815;28;90657;-88
2023/02/02 00:53:39;;;;;;;;;;;6.90;99.90;7.30;100953.00;;;;342517;28;82397;-87
2023/02/02 00:53:51;;;;;;;;;;;6.90;99.90;7.30;100953.00;;;;341248;28;87867;-88
2023/02/02 00:54:03;;;;;;;;;;;6.90;99.90;7.30;100945.00;;;;339695;28;82489;-90
2023/02/02 00:54:15;;;;;;;;;;;6.90;99.90;7.30;100954.00;;;;339623;28;88367;-87
2023/02/02 00:54:27;;;;;;;;;;;6.90;99.90;7.20;100941.00;;;;340182;28;82276;-88
2023/02/02 00:54:39;;;;;;;;;;;6.90;99.90;7.30;100949.00;;;;343569;28;86858;-88
2023/02/02 00:54:50;;;;;;;;;;;6.80;99.90;7.30;100943.00;;;;345484;28;82476;-87
2023/02/02 00:55:02;;;;;;;;;;;6.90;99.90;7.20;100944.00;;;;340852;28;88049;-89
2023/02/02 00:55:14;;;;;;;;;;;6.90;99.90;7.20;100951.00;;;;342700;28;82518;-89
2023/02/02 00:55:26;;;;;;;;;;;6.90;99.90;7.20;100948.00;;;;344736;28;91039;-87
2023/02/02 00:55:37;;;;;;;;;;;6.90;99.90;7.20;100954.00;;;;342928;28;82272;-89
2023/02/02 00:55:49;;;;;;;;;;;6.90;99.90;7.30;100944.00;;;;340847;28;90640;-89
2023/02/02 00:56:01;;;;;;;;;;;6.80;99.90;7.20;100950.00;;;;345317;28;82555;-89
2023/02/02 00:56:13;;;;;;;;;;;6.80;99.90;7.30;100943.00;;;;342143;28;90556;-88
2023/02/02 00:56:24;;;;;;;;;;;6.80;99.90;7.30;100957.00;;;;342523;28;82461;-88
2023/02/02 00:56:36;;;;;;;;;;;6.80;99.90;7.40;100950.00;;;;341129;28;86685;-86
2023/02/02 00:56:48;;;;;;;;;;;6.80;99.90;7.30;100948.00;;;;342627;28;82581;-88
2023/02/02 00:57:00;;;;;;;;;;;6.80;99.90;7.30;100944.00;;;;342254;28;88283;-89
2023/02/02 00:57:13;;;;;;;;;;;6.80;99.90;7.30;100955.00;;;;342699;28;82124;-89
2023/02/02 00:57:25;;;;;;;;;;;6.90;99.90;7.30;100948.00;;;;344904;28;88998;-89
2023/02/02 00:57:37;;;;;;;;;;;6.80;99.90;7.30;100944.00;;;;342718;28;82597;-88
2023/02/02 00:57:48;;;;;;;;;;;6.80;99.90;7.20;100950.00;;;;342210;28;88117;-88
2023/02/02 00:58:00;;;;;;;;;;;6.80;99.90;7.30;100951.00;;;;345415;28;82711;-89
2023/02/02 00:58:12;;;;;;;;;;;6.80;99.90;7.30;100947.00;;;;342067;28;89517;-88
2023/02/02 00:58:24;;;;;;;;;;;6.80;99.90;7.30;100945.00;;;;342458;28;82501;-88
2023/02/02 00:58:35;;;;;;;;;;;6.80;99.90;7.20;100950.00;;;;338372;28;88408;-86
2023/02/02 00:58:47;;;;;;;;;;;6.80;99.90;7.20;100947.00;;;;342903;28;83103;-88
2023/02/02 00:58:59;;;;;;;;;;;6.80;99.90;7.30;100949.00;;;;342473;28;87553;-89
2023/02/02 00:59:11;;;;;;;;;;;6.80;99.90;7.40;100950.00;;;;343941;28;82532;-90
2023/02/02 00:59:23;;;;;;;;;;;6.80;99.90;7.40;100955.00;;;;343447;28;88967;-89
2023/02/02 00:59:34;;;;;;;;;;;6.80;99.90;7.40;100953.00;;;;344381;28;82549;-88
2023/02/02 00:59:46;;;;;;;;;;;6.80;99.90;7.40;100938.00;;;;344935;28;88412;-88
2023/02/02 00:59:58;;;;;;;;;;;6.80;99.90;7.40;100949.00;;;;344103;28;82522;-89
2023/02/02 01:00:13;;;;;;;;;;;6.80;99.90;7.40;100954.00;;;;342319;28;89852;-88
2023/02/02 01:00:25;;;;;;;;;;;6.80;99.90;7.40;100956.00;;;;343895;28;82434;-88
2023/02/02 01:00:37;;;;;;;;;;;6.80;99.90;7.40;100944.00;;;;342002;28;89811;-86
2023/02/02 01:00:49;;;;;;;;;;;6.80;99.90;7.30;100944.00;;;;344054;28;82563;-87
2023/02/02 01:01:00;;;;;;;;;;;6.80;99.90;7.40;100953.00;;;;345103;28;91156;-89
2023/02/02 01:01:16;;;;;;;;;;;6.80;99.90;7.40;100952.00;;;;341301;28;82469;-87
2023/02/02 01:01:28;;;;;;;;;;;6.80;99.90;7.40;100953.00;;;;342111;28;89059;-89
2023/02/02 01:01:40;;;;;;;;;;;6.80;99.90;7.30;100946.00;;;;342647;28;82453;-85
2023/02/02 01:01:52;;;;;;;;;;;6.80;99.90;7.40;100944.00;;;;338231;28;88232;-88
2023/02/02 01:02:04;;;;;;;;;;;6.80;99.90;7.40;100949.00;;;;339972;28;82475;-89
2023/02/02 01:02:16;;;;;;;;;;;6.80;99.90;7.40;100947.00;;;;339633;28;88349;-89
2023/02/02 01:02:27;;;;;;;;;;;6.80;99.90;7.50;100955.00;;;;341060;28;82482;-89
2023/02/02 01:02:39;;;;;;;;;;;6.80;99.90;7.40;100947.00;;;;342365;28;88245;-87
2023/02/02 01:02:52;;;;;;;;;;;6.80;99.90;7.50;100941.00;;;;341460;28;82606;-88
2023/02/02 01:03:04;;;;;;;;;;;6.80;99.90;7.50;100943.00;;;;338433;28;87815;-89
2023/02/02 01:03:16;;;;;;;;;;;6.80;99.90;7.30;100950.00;;;;340155;28;82469;-88
2023/02/02 01:03:28;;;;;;;;;;;6.80;99.90;7.30;100950.00;;;;340847;28;89957;-88
2023/02/02 01:03:40;;;;;;;;;;;6.80;99.90;7.40;100953.00;;;;340118;28;82546;-88
2023/02/02 01:03:52;;;;;;;;;;;6.80;99.90;7.40;100942.00;;;;343346;28;88286;-89
2023/02/02 01:04:04;;;;;;;;;;;6.80;99.90;7.40;100941.00;;;;339846;28;83216;-89
2023/02/02 01:04:15;;;;;;;;;;;6.80;99.90;7.20;100945.00;;;;340028;28;87541;-88
2023/02/02 01:04:27;;;;;;;;;;;6.80;99.90;7.20;100946.00;;;;340398;28;82445;-89
2023/02/02 01:04:39;;;;;;;;;;;6.80;99.90;7.30;100953.00;;;;343871;28;87722;-86
2023/02/02 01:04:51;;;;;;;;;;;6.80;99.90;7.20;100951.00;;;;341097;28;82318;-88
2023/02/02 01:05:03;;;;;;;;;;;6.80;99.90;7.20;100948.00;;;;339646;28;88187;-88
2023/02/02 01:05:15;;;;;;;;;;;6.80;99.90;7.10;100954.00;;;;340022;28;82526;-88
2023/02/02 01:05:27;;;;;;;;;;;6.80;99.90;7.10;100952.00;;;;339671;28;87266;-88
2023/02/02 01:05:39;;;;;;;;;;;6.80;99.90;7.20;100947.00;;;;342704;28;82215;-87
2023/02/02 01:05:50;;;;;;;;;;;6.80;99.90;7.20;100946.00;;;;343781;28;87730;-88
2023/02/02 01:06:03;;;;;;;;;;;6.80;99.90;7.20;100946.00;;;;344067;28;82341;-88
2023/02/02 01:06:15;;;;;;;;;;;6.80;99.90;7.30;100955.00;;;;339456;28;90664;-87
2023/02/02 01:06:27;;;;;;;;;;;6.80;99.90;7.20;100949.00;;;;341289;28;82359;-88
2023/02/02 01:06:38;;;;;;;;;;;6.80;99.90;7.20;100949.00;;;;341939;28;90361;-86
2023/02/02 01:06:50;;;;;;;;;;;6.80;99.90;7.30;100949.00;;;;339889;28;82586;-89
2023/02/02 01:07:02;;;;;;;;;;;6.80;99.90;7.40;100950.00;;;;341026;28;88307;-89
2023/02/02 01:07:14;;;;;;;;;;;6.80;99.90;7.30;100955.00;;;;341250;28;82366;-87
2023/02/02 01:07:25;;;;;;;;;;;6.80;99.90;7.30;100951.00;;;;336643;28;90341;-88
2023/02/02 01:07:37;;;;;;;;;;;6.80;99.90;7.20;100950.00;;;;341246;28;82654;-86
2023/02/02 01:07:49;;;;;;;;;;;6.70;99.90;7.20;100952.00;;;;342323;28;88219;-87
2023/02/02 01:08:01;;;;;;;;;;;6.80;99.90;7.20;100944.00;;;;341073;28;82556;-88
2023/02/02 01:08:13;;;;;;;;;;;6.80;99.90;7.20;100935.00;;;;338080;28;88240;-89
2023/02/02 01:08:25;;;;;;;;;;;6.70;99.90;7.10;100955.00;;;;340732;28;82618;-89
2023/02/02 01:08:36;;;;;;;;;;;6.80;99.90;7.20;100950.00;;;;339117;28;91248;-89
2023/02/02 01:08:48;;;;;;;;;;;6.70;99.90;7.30;100948.00;;;;339976;28;82464;-89
2023/02/02 01:09:00;;;;;;;;;;;6.70;99.90;7.30;100950.00;;;;342243;28;88117;-89